sensor_id;sensor_type;location;lat;lon;timestamp;pressure;altitude;pressure_sealevel;temperature;humidity
39405;BME280;25121;51.090;17.038;2023-02-21T00:03:23;99452.78;;;10.54;61.18
39405;BME280;25121;51.090;17.038;2023-02-21T00:05:03;99466.41;;;10.53;61.33
39405;BME280;25121;51.090;17.038;2023-02-21T00:06:50;99465.41;;;10.54;61.40
39405;BME280;25121;51.090;17.038;2023-02-21T00:08:36;99452.78;;;10.54;61.66
39405;BME280;25121;51.090;17.038;2023-02-21T00:10:17;99462.72;;;10.54;61.50
39405;BME280;25121;51.090;17.038;2023-02-21T00:11:57;99464.38;;;10.55;61.74
39405;BME280;25121;51.090;17.038;2023-02-21T00:14:27;99456.31;;;10.55;61.71
39405;BME280;25121;51.090;17.038;2023-02-21T00:16:16;99443.00;;;10.47;61.68
39405;BME280;25121;51.090;17.038;2023-02-21T00:18:02;99465.19;;;10.55;61.66
39405;BME280;25121;51.090;17.038;2023-02-21T00:19:41;99469.56;;;10.56;61.90
39405;BME280;25121;51.090;17.038;2023-02-21T00:21:22;99477.63;;;10.56;61.96
39405;BME280;25121;51.090;17.038;2023-02-21T00:23:12;99458.81;;;10.56;61.98
39405;BME280;25121;51.090;17.038;2023-02-21T00:24:52;99455.31;;;10.56;61.98
39405;BME280;25121;51.090;17.038;2023-02-21T00:26:32;99457.78;;;10.57;62.09
39405;BME280;25121;51.090;17.038;2023-02-21T00:28:17;99472.03;;;10.58;61.88
39405;BME280;25121;51.090;17.038;2023-02-21T00:29:57;99465.66;;;10.59;62.08
39405;BME280;25121;51.090;17.038;2023-02-21T00:31:37;99460.06;;;10.61;62.28
39405;BME280;25121;51.090;17.038;2023-02-21T00:33:16;99462.97;;;10.59;62.18
39405;BME280;25121;51.090;17.038;2023-02-21T00:34:56;99429.69;;;10.60;62.06
39405;BME280;25121;51.090;17.038;2023-02-21T00:36:39;99467.69;;;10.57;62.26
39405;BME280;25121;51.090;17.038;2023-02-21T00:38:20;99448.81;;;10.50;62.17
39405;BME280;25121;51.090;17.038;2023-02-21T00:40:32;99461.28;;;10.58;62.12
39405;BME280;25121;51.090;17.038;2023-02-21T00:42:11;99464.56;;;10.53;62.23
39405;BME280;25121;51.090;17.038;2023-02-21T00:44:12;99452.72;;;10.48;62.34
39405;BME280;25121;51.090;17.038;2023-02-21T00:45:52;99467.69;;;10.57;62.46
39405;BME280;25121;51.090;17.038;2023-02-21T00:47:32;99443.50;;;10.57;62.60
39405;BME280;25121;51.090;17.038;2023-02-21T00:49:14;99451.56;;;10.57;62.22
39405;BME280;25121;51.090;17.038;2023-02-21T00:50:54;99459.47;;;10.59;62.57
39405;BME280;25121;51.090;17.038;2023-02-21T00:52:38;99453.22;;;10.58;62.65
39405;BME280;25121;51.090;17.038;2023-02-21T00:54:19;99450.53;;;10.58;62.73
39405;BME280;25121;51.090;17.038;2023-02-21T00:56:07;99458.34;;;10.53;62.83
39405;BME280;25121;51.090;17.038;2023-02-21T00:57:47;99473.72;;;10.59;62.87
39405;BME280;25121;51.090;17.038;2023-02-21T00:59:29;99476.59;;;10.57;62.95
39405;BME280;25121;51.090;17.038;2023-02-21T01:01:21;99460.03;;;10.54;63.18
39405;BME280;25121;51.090;17.038;2023-02-21T01:03:09;99456.31;;;10.55;62.96
39405;BME280;25121;51.090;17.038;2023-02-21T01:05:01;99454.09;;;10.59;63.16
39405;BME280;25121;51.090;17.038;2023-02-21T01:06:44;99450.28;;;10.53;63.17
39405;BME280;25121;51.090;17.038;2023-02-21T01:08:24;99461.94;;;10.60;63.31
39405;BME280;25121;51.090;17.038;2023-02-21T01:10:09;99461.09;;;10.60;63.40
39405;BME280;25121;51.090;17.038;2023-02-21T01:11:49;99462.97;;;10.59;63.11
39405;BME280;25121;51.090;17.038;2023-02-21T01:13:31;99469.34;;;10.58;63.47
39405;BME280;25121;51.090;17.038;2023-02-21T01:15:11;99451.41;;;10.59;63.56
39405;BME280;25121;51.090;17.038;2023-02-21T01:16:53;99440.81;;;10.57;63.51
39405;BME280;25121;51.090;17.038;2023-02-21T01:18:33;99457.59;;;10.59;63.58
39405;BME280;25121;51.090;17.038;2023-02-21T01:20:14;99447.84;;;10.58;63.78
39405;BME280;25121;51.090;17.038;2023-02-21T01:21:54;99455.72;;;10.60;63.77
39405;BME280;25121;51.090;17.038;2023-02-21T01:23:35;99449.53;;;10.59;63.80
39405;BME280;25121;51.090;17.038;2023-02-21T01:25:16;99451.56;;;10.57;64.16
39405;BME280;25121;51.090;17.038;2023-02-21T01:26:56;99455.91;;;10.58;63.88
39405;BME280;25121;51.090;17.038;2023-02-21T01:28:37;99450.53;;;10.58;63.99
39405;BME280;25121;51.090;17.038;2023-02-21T01:30:17;99455.09;;;10.57;64.05
39405;BME280;25121;51.090;17.038;2023-02-21T01:31:56;99439.19;;;10.56;64.34
39405;BME280;25121;51.090;17.038;2023-02-21T01:33:37;99437.31;;;10.56;64.06
39405;BME280;25121;51.090;17.038;2023-02-21T01:35:20;99443.91;;;10.54;64.28
39405;BME280;25121;51.090;17.038;2023-02-21T01:37:00;99449.06;;;10.55;64.25
39405;BME280;25121;51.090;17.038;2023-02-21T01:38:42;99427.56;;;10.55;64.28
39405;BME280;25121;51.090;17.038;2023-02-21T01:40:24;99460.84;;;10.54;64.40
39405;BME280;25121;51.090;17.038;2023-02-21T01:42:04;99450.94;;;10.55;64.39
39405;BME280;25121;51.090;17.038;2023-02-21T01:43:59;99431.47;;;10.53;64.89
39405;BME280;25121;51.090;17.038;2023-02-21T01:45:48;99449.03;;;10.49;64.70
39405;BME280;25121;51.090;17.038;2023-02-21T01:47:28;99451.31;;;10.52;64.77
39405;BME280;25121;51.090;17.038;2023-02-21T01:49:15;99460.59;;;10.49;64.93
39405;BME280;25121;51.090;17.038;2023-02-21T01:50:56;99436.59;;;10.48;64.75
39405;BME280;25121;51.090;17.038;2023-02-21T01:52:37;99427.53;;;10.49;65.08
39405;BME280;25121;51.090;17.038;2023-02-21T01:54:17;99442.81;;;10.48;65.17
39405;BME280;25121;51.090;17.038;2023-02-21T01:56:00;99442.81;;;10.48;65.24
39405;BME280;25121;51.090;17.038;2023-02-21T01:57:43;99435.75;;;10.47;65.29
39405;BME280;25121;51.090;17.038;2023-02-21T01:59:25;99451.06;;;10.47;65.34
39405;BME280;25121;51.090;17.038;2023-02-21T02:01:05;99442.16;;;10.46;65.56
39405;BME280;25121;51.090;17.038;2023-02-21T02:02:51;99445.03;;;10.45;65.66
39405;BME280;25121;51.090;17.038;2023-02-21T02:08:36;99438.88;;;10.29;65.54
39405;BME280;25121;51.090;17.038;2023-02-21T02:46:30;99408.78;;;10.19;66.77
39405;BME280;25121;51.090;17.038;2023-02-21T02:47:59;99401.19;;;10.23;67.03
39405;BME280;25121;51.090;17.038;2023-02-21T02:49:27;99412.31;;;10.20;66.86
39405;BME280;25121;51.090;17.038;2023-02-21T02:50:51;99411.75;;;10.24;67.17
39405;BME280;25121;51.090;17.038;2023-02-21T02:52:16;99404.50;;;10.25;67.20
39405;BME280;25121;51.090;17.038;2023-02-21T02:53:39;99415.41;;;10.23;67.13
39405;BME280;25121;51.090;17.038;2023-02-21T02:55:05;99425.63;;;10.28;67.19
39405;BME280;25121;51.090;17.038;2023-02-21T02:56:42;99407.38;;;10.23;67.24
39405;BME280;25121;51.090;17.038;2023-02-21T02:58:04;99407.00;;;10.26;67.21
39405;BME280;25121;51.090;17.038;2023-02-21T02:59:28;99414.72;;;10.29;67.04
39405;BME280;25121;51.090;17.038;2023-02-21T03:01:13;99408.84;;;10.26;67.19
39405;BME280;25121;51.090;17.038;2023-02-21T03:02:52;99410.16;;;10.30;67.06
39405;BME280;25121;51.090;17.038;2023-02-21T03:04:38;99411.19;;;10.29;67.14
39405;BME280;25121;51.090;17.038;2023-02-21T03:06:40;99407.47;;;10.30;67.25
39405;BME280;25121;51.090;17.038;2023-02-21T03:08:15;99420.72;;;10.31;67.13
39405;BME280;25121;51.090;17.038;2023-02-21T03:10:01;99432.31;;;10.32;67.18
39405;BME280;25121;51.090;17.038;2023-02-21T03:11:25;99382.09;;;10.32;67.21
39405;BME280;25121;51.090;17.038;2023-02-21T03:12:51;99410.34;;;10.28;67.07
39405;BME280;25121;51.090;17.038;2023-02-21T03:14:21;99398.59;;;10.29;67.21
39405;BME280;25121;51.090;17.038;2023-02-21T03:16:18;99424.25;;;10.32;67.38
39405;BME280;25121;51.090;17.038;2023-02-21T03:18:02;99406.44;;;10.31;67.32
39405;BME280;25121;51.090;17.038;2023-02-21T03:19:34;99417.00;;;10.32;67.38
39405;BME280;25121;51.090;17.038;2023-02-21T03:21:06;99402.75;;;10.32;67.13
39405;BME280;25121;51.090;17.038;2023-02-21T03:22:34;99412.28;;;10.34;67.24
39405;BME280;25121;51.090;17.038;2023-02-21T03:24:00;99407.09;;;10.33;67.35
39405;BME280;25121;51.090;17.038;2023-02-21T03:25:25;99401.53;;;10.34;67.29
39405;BME280;25121;51.090;17.038;2023-02-21T03:27:01;99419.31;;;10.35;67.38
39405;BME280;25121;51.090;17.038;2023-02-21T03:28:45;99390.53;;;10.29;67.22
39405;BME280;25121;51.090;17.038;2023-02-21T03:30:12;99411.91;;;10.38;67.32
39405;BME280;25121;51.090;17.038;2023-02-21T03:31:39;99410.44;;;10.35;67.28
39405;BME280;25121;51.090;17.038;2023-02-21T03:33:07;99411.63;;;10.32;67.37
39405;BME280;25121;51.090;17.038;2023-02-21T03:34:30;99416.28;;;10.39;67.34
39405;BME280;25121;51.090;17.038;2023-02-21T03:35:53;99409.88;;;10.40;67.44
39405;BME280;25121;51.090;17.038;2023-02-21T03:37:20;99388.38;;;10.40;67.36
39405;BME280;25121;51.090;17.038;2023-02-21T03:38:44;99402.84;;;10.39;67.28
39405;BME280;25121;51.090;17.038;2023-02-21T03:40:11;99402.63;;;10.40;67.33
39405;BME280;25121;51.090;17.038;2023-02-21T03:41:39;99406.13;;;10.41;67.40
39405;BME280;25121;51.090;17.038;2023-02-21T03:43:03;99403.44;;;10.41;67.50
39405;BME280;25121;51.090;17.038;2023-02-21T03:44:35;99403.28;;;10.42;67.45
39405;BME280;25121;51.090;17.038;2023-02-21T03:45:58;99400.16;;;10.39;67.42
39405;BME280;25121;51.090;17.038;2023-02-21T03:47:21;99394.41;;;10.42;67.42
39405;BME280;25121;51.090;17.038;2023-02-21T03:48:46;99392.53;;;10.42;67.38
39405;BME280;25121;51.090;17.038;2023-02-21T03:50:13;99401.63;;;10.41;67.71
39405;BME280;25121;51.090;17.038;2023-02-21T03:51:36;99401.97;;;10.38;67.54
39405;BME280;25121;51.090;17.038;2023-02-21T03:53:00;99421.44;;;10.40;67.67
39405;BME280;25121;51.090;17.038;2023-02-21T03:54:22;99414.03;;;10.42;67.53
39405;BME280;25121;51.090;17.038;2023-02-21T03:55:55;99421.25;;;10.42;67.48
39405;BME280;25121;51.090;17.038;2023-02-21T03:57:26;99408.81;;;10.41;67.57
39405;BME280;25121;51.090;17.038;2023-02-21T03:58:48;99408.66;;;10.42;67.61
39405;BME280;25121;51.090;17.038;2023-02-21T04:00:13;99397.47;;;10.39;67.73
39405;BME280;25121;51.090;17.038;2023-02-21T04:01:35;99397.81;;;10.35;67.73
39405;BME280;25121;51.090;17.038;2023-02-21T04:03:00;99406.78;;;10.43;67.70
39405;BME280;25121;51.090;17.038;2023-02-21T04:04:31;99415.66;;;10.43;67.70
39405;BME280;25121;51.090;17.038;2023-02-21T04:06:00;99404.50;;;10.40;67.84
39405;BME280;25121;51.090;17.038;2023-02-21T04:07:28;99419.22;;;10.44;67.78
39405;BME280;25121;51.090;17.038;2023-02-21T04:08:50;99393.94;;;10.38;67.63
39405;BME280;25121;51.090;17.038;2023-02-21T04:10:19;99414.78;;;10.36;67.79
39405;BME280;25121;51.090;17.038;2023-02-21T04:11:41;99412.38;;;10.41;67.69
39405;BME280;25121;51.090;17.038;2023-02-21T04:13:04;99418.94;;;10.39;67.47
39405;BME280;25121;51.090;17.038;2023-02-21T04:14:32;99403.84;;;10.38;67.32
39405;BME280;25121;51.090;17.038;2023-02-21T04:15:54;99423.47;;;10.38;67.56
39405;BME280;25121;51.090;17.038;2023-02-21T04:17:17;99415.16;;;10.33;67.82
39405;BME280;25121;51.090;17.038;2023-02-21T04:18:42;99412.94;;;10.37;67.78
39405;BME280;25121;51.090;17.038;2023-02-21T04:20:09;99412.53;;;10.40;67.75
39405;BME280;25121;51.090;17.038;2023-02-21T04:21:36;99422.47;;;10.39;67.89
39405;BME280;25121;51.090;17.038;2023-02-21T04:23:07;99413.38;;;10.40;68.01
39405;BME280;25121;51.090;17.038;2023-02-21T04:24:36;99413.59;;;10.39;67.70
39405;BME280;25121;51.090;17.038;2023-02-21T04:25:58;99432.00;;;10.42;67.85
39405;BME280;25121;51.090;17.038;2023-02-21T04:27:31;99417.53;;;10.43;67.74
39405;BME280;25121;51.090;17.038;2023-02-21T04:28:52;99420.22;;;10.43;67.85
39405;BME280;25121;51.090;17.038;2023-02-21T04:30:15;99425.59;;;10.43;67.75
39405;BME280;25121;51.090;17.038;2023-02-21T04:31:38;99405.69;;;10.37;67.81
39405;BME280;25121;51.090;17.038;2023-02-21T04:33:08;99422.72;;;10.44;67.68
39405;BME280;25121;51.090;17.038;2023-02-21T04:34:31;99425.59;;;10.43;67.59
39405;BME280;25121;51.090;17.038;2023-02-21T04:35:56;99425.41;;;10.44;67.73
39405;BME280;25121;51.090;17.038;2023-02-21T04:37:28;99425.19;;;10.46;67.89
39405;BME280;25121;51.090;17.038;2023-02-21T04:38:53;99414.28;;;10.47;67.82
39405;BME280;25121;51.090;17.038;2023-02-21T04:40:15;99410.28;;;10.43;67.85
39405;BME280;25121;51.090;17.038;2023-02-21T04:41:37;99428.75;;;10.46;67.72
39405;BME280;25121;51.090;17.038;2023-02-21T04:42:59;99425.59;;;10.43;67.66
39405;BME280;25121;51.090;17.038;2023-02-21T04:44:22;99435.75;;;10.47;67.54
39405;BME280;25121;51.090;17.038;2023-02-21T04:45:48;99425.03;;;10.47;67.68
39405;BME280;25121;51.090;17.038;2023-02-21T04:47:10;99417.34;;;10.44;67.81
39405;BME280;25121;51.090;17.038;2023-02-21T04:48:33;99424.38;;;10.45;67.73
39405;BME280;25121;51.090;17.038;2023-02-21T04:49:55;99414.53;;;10.52;67.64
39405;BME280;25121;51.090;17.038;2023-02-21T04:51:20;99420.13;;;10.51;67.77
39405;BME280;25121;51.090;17.038;2023-02-21T04:52:43;99423.63;;;10.51;67.82
39405;BME280;25121;51.090;17.038;2023-02-21T04:54:14;99414.91;;;10.49;67.92
39405;BME280;25121;51.090;17.038;2023-02-21T04:55:43;99411.59;;;10.47;67.89
39405;BME280;25121;51.090;17.038;2023-02-21T04:57:04;99408.72;;;10.49;67.94
39405;BME280;25121;51.090;17.038;2023-02-21T04:58:31;99430.22;;;10.49;68.28
39405;BME280;25121;51.090;17.038;2023-02-21T05:00:10;99412.16;;;10.43;68.26
39405;BME280;25121;51.090;17.038;2023-02-21T05:01:35;99400.78;;;10.41;68.68
39405;BME280;25121;51.090;17.038;2023-02-21T05:02:58;99416.88;;;10.41;68.64
39405;BME280;25121;51.090;17.038;2023-02-21T05:04:19;99393.50;;;10.34;68.74
39405;BME280;25121;51.090;17.038;2023-02-21T05:05:44;99425.31;;;10.38;69.12
39405;BME280;25121;51.090;17.038;2023-02-21T05:07:08;99421.38;;;10.33;69.15
39405;BME280;25121;51.090;17.038;2023-02-21T05:08:31;99423.03;;;10.34;69.36
39405;BME280;25121;51.090;17.038;2023-02-21T05:09:52;99421.56;;;10.32;69.41
39405;BME280;25121;51.090;17.038;2023-02-21T05:11:16;99425.06;;;10.32;69.57
39405;BME280;25121;51.090;17.038;2023-02-21T05:12:49;99417.56;;;10.28;69.85
39405;BME280;25121;51.090;17.038;2023-02-21T05:14:13;99424.41;;;10.30;69.89
39405;BME280;25121;51.090;17.038;2023-02-21T05:15:38;99416.72;;;10.27;70.12
39405;BME280;25121;51.090;17.038;2023-02-21T05:17:08;99426.63;;;10.27;70.07
39405;BME280;25121;51.090;17.038;2023-02-21T05:18:31;99404.31;;;10.26;70.27
39405;BME280;25121;51.090;17.038;2023-02-21T05:19:59;99413.34;;;10.19;70.30
39405;BME280;25121;51.090;17.038;2023-02-21T05:21:24;99421.66;;;10.24;70.18
39405;BME280;25121;51.090;17.038;2023-02-21T05:22:48;99415.81;;;10.20;70.30
39405;BME280;25121;51.090;17.038;2023-02-21T05:24:10;99420.78;;;10.23;70.43
39405;BME280;25121;51.090;17.038;2023-02-21T05:25:33;99413.13;;;10.20;70.56
39405;BME280;25121;51.090;17.038;2023-02-21T05:26:56;99424.69;;;10.21;70.53
39405;BME280;25121;51.090;17.038;2023-02-21T05:28:22;99402.59;;;10.19;70.45
39405;BME280;25121;51.090;17.038;2023-02-21T05:29:53;99413.78;;;10.22;70.45
39405;BME280;25121;51.090;17.038;2023-02-21T05:31:16;99413.94;;;10.21;70.71
39405;BME280;25121;51.090;17.038;2023-02-21T05:32:40;99417.28;;;10.23;70.83
39405;BME280;25121;51.090;17.038;2023-02-21T05:34:05;99419.97;;;10.23;70.44
39405;BME280;25121;51.090;17.038;2023-02-21T05:35:29;99405.91;;;10.21;70.66
39405;BME280;25121;51.090;17.038;2023-02-21T05:36:56;99424.34;;;10.24;70.89
39405;BME280;25121;51.090;17.038;2023-02-21T05:38:23;99417.28;;;10.23;70.63
39405;BME280;25121;51.090;17.038;2023-02-21T05:39:46;99412.75;;;10.23;70.80
39405;BME280;25121;51.090;17.038;2023-02-21T05:41:10;99425.16;;;10.24;70.72
39405;BME280;25121;51.090;17.038;2023-02-21T05:42:32;99419.59;;;10.26;70.69
39405;BME280;25121;51.090;17.038;2023-02-21T05:43:55;99426.63;;;10.27;70.63
39405;BME280;25121;51.090;17.038;2023-02-21T05:45:19;99423.31;;;10.25;70.35
39405;BME280;25121;51.090;17.038;2023-02-21T05:47:34;99420.44;;;10.26;70.42
39405;BME280;25121;51.090;17.038;2023-02-21T05:49:17;99424.94;;;10.26;70.34
39405;BME280;25121;51.090;17.038;2023-02-21T05:50:48;99432.69;;;10.29;69.98
39405;BME280;25121;51.090;17.038;2023-02-21T05:52:12;99424.41;;;10.30;70.36
39405;BME280;25121;51.090;17.038;2023-02-21T05:53:40;99404.69;;;10.23;70.25
39405;BME280;25121;51.090;17.038;2023-02-21T05:55:01;99426.09;;;10.31;70.06
39405;BME280;25121;51.090;17.038;2023-02-21T05:56:27;99433.78;;;10.34;70.14
39405;BME280;25121;51.090;17.038;2023-02-21T05:57:50;99426.53;;;10.35;70.08
39405;BME280;25121;51.090;17.038;2023-02-21T05:59:14;99427.38;;;10.35;70.12
39405;BME280;25121;51.090;17.038;2023-02-21T06:00:36;99428.00;;;10.38;70.18
39405;BME280;25121;51.090;17.038;2023-02-21T06:01:58;99423.69;;;10.37;70.20
39405;BME280;25121;51.090;17.038;2023-02-21T06:03:20;99426.16;;;10.38;69.97
39405;BME280;25121;51.090;17.038;2023-02-21T06:04:44;99441.91;;;10.41;70.19
39405;BME280;25121;51.090;17.038;2023-02-21T06:06:10;99418.56;;;10.42;69.96
39405;BME280;25121;51.090;17.038;2023-02-21T06:07:34;99442.34;;;10.45;70.05
39405;BME280;25121;51.090;17.038;2023-02-21T06:08:59;99445.44;;;10.42;70.22
39405;BME280;25121;51.090;17.038;2023-02-21T06:10:21;99432.63;;;10.44;69.98
39405;BME280;25121;51.090;17.038;2023-02-21T06:11:42;99453.09;;;10.45;70.24
39405;BME280;25121;51.090;17.038;2023-02-21T06:13:05;99452.28;;;10.44;70.17
39405;BME280;25121;51.090;17.038;2023-02-21T06:14:27;99449.19;;;10.47;69.90
39405;BME280;25121;51.090;17.038;2023-02-21T06:15:57;99440.69;;;10.44;70.08
39405;BME280;25121;51.090;17.038;2023-02-21T06:17:22;99450.88;;;10.48;70.36
39405;BME280;25121;51.090;17.038;2023-02-21T06:18:48;99451.06;;;10.47;70.34
39405;BME280;25121;51.090;17.038;2023-02-21T06:20:39;99450.97;;;10.40;70.37
39405;BME280;25121;51.090;17.038;2023-02-21T06:22:06;99454.97;;;10.44;70.50
39405;BME280;25121;51.090;17.038;2023-02-21T06:26:39;99466.09;;;10.41;70.66
39405;BME280;25121;51.090;17.038;2023-02-21T06:29:48;99463.56;;;10.40;70.71
39405;BME280;25121;51.090;17.038;2023-02-21T06:31:10;99472.53;;;10.47;70.98
39405;BME280;25121;51.090;17.038;2023-02-21T06:32:36;99471.50;;;10.48;71.15
39405;BME280;25121;51.090;17.038;2023-02-21T06:34:06;99466.34;;;10.46;70.95
39405;BME280;25121;51.090;17.038;2023-02-21T06:35:33;99462.25;;;10.50;71.32
39405;BME280;25121;51.090;17.038;2023-02-21T06:37:03;99455.59;;;10.46;71.37
39405;BME280;25121;51.090;17.038;2023-02-21T06:38:26;99476.31;;;10.52;71.57
39405;BME280;25121;51.090;17.038;2023-02-21T06:39:48;99486.06;;;10.53;71.41
39405;BME280;25121;51.090;17.038;2023-02-21T06:41:10;99479.84;;;10.53;71.32
39405;BME280;25121;51.090;17.038;2023-02-21T06:42:37;99478.19;;;10.52;71.72
39405;BME280;25121;51.090;17.038;2023-02-21T06:44:06;99489.84;;;10.59;71.78
39405;BME280;25121;51.090;17.038;2023-02-21T06:45:44;99490.47;;;10.61;71.52
39405;BME280;25121;51.090;17.038;2023-02-21T06:47:06;99495.72;;;10.69;71.45
39405;BME280;25121;51.090;17.038;2023-02-21T06:48:29;99476.09;;;10.69;71.43
39405;BME280;25121;51.090;17.038;2023-02-21T06:49:51;99488.75;;;10.75;71.27
39405;BME280;25121;51.090;17.038;2023-02-21T06:51:18;99481.91;;;10.72;71.27
39405;BME280;25121;51.090;17.038;2023-02-21T06:52:43;99481.97;;;10.79;71.23
39405;BME280;25121;51.090;17.038;2023-02-21T06:54:08;99479.28;;;10.79;70.93
39405;BME280;25121;51.090;17.038;2023-02-21T06:55:43;99476.59;;;10.79;70.79
39405;BME280;25121;51.090;17.038;2023-02-21T06:57:06;99479.09;;;10.81;70.75
39405;BME280;25121;51.090;17.038;2023-02-21T07:01:27;99480.38;;;11.06;70.19
39405;BME280;25121;51.090;17.038;2023-02-21T07:02:50;99478.13;;;11.10;69.92
39405;BME280;25121;51.090;17.038;2023-02-21T07:04:19;99475.44;;;11.10;70.00
39405;BME280;25121;51.090;17.038;2023-02-21T07:05:46;99472.56;;;11.11;69.76
39405;BME280;25121;51.090;17.038;2023-02-21T07:07:09;99481.06;;;11.15;69.55
39405;BME280;25121;51.090;17.038;2023-02-21T07:08:34;99490.41;;;11.19;69.77
39405;BME280;25121;51.090;17.038;2023-02-21T07:10:00;99488.75;;;11.18;69.70
39405;BME280;25121;51.090;17.038;2023-02-21T07:11:30;99503.03;;;11.18;69.52
39405;BME280;25121;51.090;17.038;2023-02-21T07:12:58;99493.69;;;11.14;69.46
39405;BME280;25121;51.090;17.038;2023-02-21T07:14:21;99488.56;;;11.19;69.59
39405;BME280;25121;51.090;17.038;2023-02-21T07:16:22;99488.16;;;11.23;69.50
39405;BME280;25121;51.090;17.038;2023-02-21T07:18:34;99493.59;;;11.29;69.35
39405;BME280;25121;51.090;17.038;2023-02-21T07:20:22;99501.34;;;11.39;68.97
39405;BME280;25121;51.090;17.038;2023-02-21T07:22:23;99494.66;;;11.35;69.28
39405;BME280;25121;51.090;17.038;2023-02-21T07:24:19;99511.06;;;11.40;69.03
39405;BME280;25121;51.090;17.038;2023-02-21T07:25:44;99511.94;;;11.47;68.87
39405;BME280;25121;51.090;17.038;2023-02-21T07:27:07;99514.13;;;11.58;68.75
39405;BME280;25121;51.090;17.038;2023-02-21T07:28:29;99501.38;;;11.74;68.20
39405;BME280;25121;51.090;17.038;2023-02-21T07:29:55;99495.91;;;11.89;67.71
39405;BME280;25121;51.090;17.038;2023-02-21T07:31:24;99511.50;;;12.00;67.89
39405;BME280;25121;51.090;17.038;2023-02-21T07:32:50;99517.28;;;11.97;67.54
39405;BME280;25121;51.090;17.038;2023-02-21T07:34:14;99516.66;;;11.95;67.51
39405;BME280;25121;51.090;17.038;2023-02-21T07:35:40;99525.13;;;11.92;67.38
39405;BME280;25121;51.090;17.038;2023-02-21T07:37:05;99525.91;;;11.85;67.71
39405;BME280;25121;51.090;17.038;2023-02-21T07:38:35;99496.03;;;11.80;67.46
39405;BME280;25121;51.090;17.038;2023-02-21T07:40:00;99508.66;;;11.80;67.46
39405;BME280;25121;51.090;17.038;2023-02-21T07:41:34;99516.94;;;11.78;67.74
39405;BME280;25121;51.090;17.038;2023-02-21T07:42:56;99517.34;;;11.75;67.66
39405;BME280;25121;51.090;17.038;2023-02-21T07:44:19;99534.34;;;11.82;67.82
39405;BME280;25121;51.090;17.038;2023-02-21T07:45:43;99535.06;;;11.91;67.67
39405;BME280;25121;51.090;17.038;2023-02-21T07:47:09;99533.59;;;11.89;67.61
39405;BME280;25121;51.090;17.038;2023-02-21T07:48:34;99529.88;;;11.90;67.66
39405;BME280;25121;51.090;17.038;2023-02-21T07:49:59;99518.00;;;11.84;67.49
39405;BME280;25121;51.090;17.038;2023-02-21T07:51:26;99529.03;;;11.89;67.51
39405;BME280;25121;51.090;17.038;2023-02-21T07:52:52;99532.09;;;11.86;67.61
39405;BME280;25121;51.090;17.038;2023-02-21T07:54:16;99521.19;;;11.88;67.54
39405;BME280;25121;51.090;17.038;2023-02-21T07:55:39;99520.69;;;11.84;67.43
39405;BME280;25121;51.090;17.038;2023-02-21T07:57:06;99522.31;;;11.78;67.31
39405;BME280;25121;51.090;17.038;2023-02-21T07:58:28;99534.16;;;11.84;67.26
39405;BME280;25121;51.090;17.038;2023-02-21T07:59:57;99536.09;;;11.90;67.16
39405;BME280;25121;51.090;17.038;2023-02-21T08:01:25;99549.94;;;11.87;67.17
39405;BME280;25121;51.090;17.038;2023-02-21T08:02:51;99541.81;;;11.80;67.10
39405;BME280;25121;51.090;17.038;2023-02-21T08:04:14;99535.84;;;11.85;67.31
39405;BME280;25121;51.090;17.038;2023-02-21T08:05:41;99538.06;;;11.81;67.33
39405;BME280;25121;51.090;17.038;2023-02-21T08:07:08;99551.81;;;11.87;67.34
39405;BME280;25121;51.090;17.038;2023-02-21T08:08:30;99541.88;;;11.87;67.07
39405;BME280;25121;51.090;17.038;2023-02-21T08:10:02;99536.47;;;11.87;67.11
39405;BME280;25121;51.090;17.038;2023-02-21T08:11:24;99554.88;;;11.83;67.24
39405;BME280;25121;51.090;17.038;2023-02-21T08:12:46;99560.91;;;11.85;67.33
39405;BME280;25121;51.090;17.038;2023-02-21T08:14:09;99551.28;;;11.76;67.33
39405;BME280;25121;51.090;17.038;2023-02-21T08:15:31;99538.66;;;11.77;66.98
39405;BME280;25121;51.090;17.038;2023-02-21T08:16:55;99559.78;;;11.80;67.28
39405;BME280;25121;51.090;17.038;2023-02-21T08:18:23;99540.34;;;11.78;67.14
39405;BME280;25121;51.090;17.038;2023-02-21T08:19:47;99552.19;;;11.83;67.23
39405;BME280;25121;51.090;17.038;2023-02-21T08:21:31;99548.19;;;11.79;67.19
39405;BME280;25121;51.090;17.038;2023-02-21T08:23:02;99557.56;;;11.83;67.20
39405;BME280;25121;51.090;17.038;2023-02-21T08:24:24;99534.72;;;11.73;67.39
39405;BME280;25121;51.090;17.038;2023-02-21T08:25:55;99548.59;;;11.76;67.19
39405;BME280;25121;51.090;17.038;2023-02-21T08:27:19;99550.06;;;11.79;67.23
39405;BME280;25121;51.090;17.038;2023-02-21T08:28:45;99550.47;;;11.76;67.33
39405;BME280;25121;51.090;17.038;2023-02-21T08:30:17;99537.41;;;11.73;67.34
39405;BME280;25121;51.090;17.038;2023-02-21T08:31:41;99558.72;;;11.74;67.85
39405;BME280;25121;51.090;17.038;2023-02-21T08:33:08;99552.94;;;11.77;67.77
39405;BME280;25121;51.090;17.038;2023-02-21T08:34:32;99560.84;;;11.79;67.79
39405;BME280;25121;51.090;17.038;2023-02-21T08:35:56;99563.13;;;11.82;67.86
39405;BME280;25121;51.090;17.038;2023-02-21T08:37:22;99567.28;;;11.84;68.05
39405;BME280;25121;51.090;17.038;2023-02-21T08:38:45;99556.78;;;11.90;67.77
39405;BME280;25121;51.090;17.038;2023-02-21T08:40:09;99562.63;;;11.93;67.31
39405;BME280;25121;51.090;17.038;2023-02-21T08:41:36;99551.94;;;12.06;67.42
39405;BME280;25121;51.090;17.038;2023-02-21T08:43:00;99553.22;;;12.11;67.29
39405;BME280;25121;51.090;17.038;2023-02-21T08:44:29;99563.97;;;12.11;67.52
39405;BME280;25121;51.090;17.038;2023-02-21T08:45:51;99567.91;;;12.08;67.48
39405;BME280;25121;51.090;17.038;2023-02-21T08:47:20;99565.44;;;12.13;67.16